Time;durP1;ratioP1;P1;durP2;ratioP2;P2;SDS_P1;SDS_P2;PMS_P1;PMS_P2;Temp;Humidity;BMP_temperature;BMP_pressure;BME280_temperature;BME280_humidity;BME280_pressure;Samples;Min_cycle;Max_cycle;Signal;HPM_P1;HPM_P2
2024/02/13 00:00:53;;;;;;;12.93;5.43;;;;;;;8.60;77.06;101176.72;4998546;28;20054;-61
2024/02/13 00:03:21;;;;;;;10.07;4.63;;;;;;;8.50;77.74;101176.84;4983000;28;20121;-60
2024/02/13 00:05:49;;;;;;;15.60;5.38;;;;;;;8.59;77.55;101178.69;5007155;28;20069;-59
2024/02/13 00:08:17;;;;;;;13.05;5.00;;;;;;;8.63;77.19;101182.47;5003478;28;20060;-61
2024/02/13 00:10:45;;;;;;;13.15;4.72;;;;;;;8.70;77.16;101187.66;5004917;28;20061;-60
2024/02/13 00:13:13;;;;;;;11.75;4.40;;;;;;;8.63;77.17;101190.69;4984090;28;20054;-61
2024/02/13 00:15:40;;;;;;;15.85;4.90;;;;;;;8.64;77.03;101194.28;5014415;28;20061;-60
2024/02/13 00:18:08;;;;;;;9.77;4.70;;;;;;;8.68;76.99;101187.13;4974839;28;20054;-60
2024/02/13 00:20:36;;;;;;;12.25;4.57;;;;;;;8.97;76.01;101190.66;5005435;28;20065;-61
2024/02/13 00:23:05;;;;;;;10.57;4.68;;;;;;;8.69;76.09;101194.22;5010397;28;20054;-62
2024/02/13 00:25:33;;;;;;;14.90;4.60;;;;;;;8.68;76.41;101187.91;5002945;28;20068;-61
2024/02/13 00:28:00;;;;;;;16.35;4.68;;;;;;;8.70;76.25;101199.44;5010899;28;20045;-60
2024/02/13 00:30:28;;;;;;;11.88;4.35;;;;;;;8.53;76.94;101196.28;4990278;28;20580;-61
2024/02/13 00:32:58;;;;;;;11.65;4.07;;;;;;;8.28;77.60;101198.44;4988066;28;20057;-60
2024/02/13 00:35:26;;;;;;;10.68;4.18;;;;;;;8.35;78.09;101198.94;4983678;28;20069;-57
2024/02/13 00:37:53;;;;;;;11.13;4.25;;;;;;;8.44;77.83;101208.19;5002626;28;20766;-59
2024/02/13 00:40:20;;;;;;;8.18;4.18;;;;;;;8.29;77.70;101200.06;5004378;28;20121;-58
2024/02/13 00:42:49;;;;;;;16.27;4.32;;;;;;;8.44;77.61;101202.72;5003307;28;20057;-58
2024/02/13 00:45:16;;;;;;;10.73;4.40;;;;;;;8.38;77.26;101201.94;5002892;28;20414;-59
2024/02/13 00:47:44;;;;;;;14.13;5.20;;;;;;;8.15;78.12;101208.09;5004256;28;20096;-57
2024/02/13 00:50:11;;;;;;;14.23;3.95;;;;;;;8.38;77.94;101203.84;5006462;28;20054;-60
2024/02/13 00:52:40;;;;;;;13.20;4.95;;;;;;;8.22;78.05;101213.25;5002389;28;20076;-59
2024/02/13 00:55:08;;;;;;;10.07;4.10;;;;;;;8.32;77.87;101219.53;4998172;28;20058;-57
2024/02/13 00:57:35;;;;;;;13.00;4.55;;;;;;;8.29;77.83;101213.78;5002424;28;20046;-58
2024/02/13 01:00:11;;;;;;;11.57;4.28;;;;;;;8.21;78.36;101208.91;4983907;28;20057;-59
2024/02/13 01:02:39;;;;;;;10.23;4.05;;;;;;;8.22;78.52;101208.59;5008031;28;20049;-57
2024/02/13 01:05:07;;;;;;;13.43;4.13;;;;;;;8.20;78.55;101208.06;5004603;28;20065;-60
2024/02/13 01:07:35;;;;;;;12.73;4.35;;;;;;;8.14;78.15;101211.97;5006535;28;20057;-58
2024/02/13 01:10:06;;;;;;;9.52;4.28;;;;;;;8.27;78.41;101214.09;5002418;28;20100;-57
2024/02/13 01:12:34;;;;;;;13.15;3.80;;;;;;;8.29;77.94;101217.38;5005046;28;20062;-57
2024/02/13 01:15:01;;;;;;;12.02;4.07;;;;;;;8.15;78.74;101208.09;5012578;28;20056;-57
2024/02/13 01:17:28;;;;;;;8.75;3.90;;;;;;;8.25;78.67;101212.72;5009850;28;20054;-57
2024/02/13 01:19:57;;;;;;;13.18;4.13;;;;;;;8.25;78.66;101219.03;5007271;28;20061;-58
2024/02/13 01:22:24;;;;;;;11.35;4.35;;;;;;;8.20;78.44;101212.72;5002870;28;20568;-58
2024/02/13 01:24:52;;;;;;;13.43;4.18;;;;;;;8.23;78.50;101225.91;5002897;28;20080;-58
2024/02/13 01:27:19;;;;;;;12.38;4.22;;;;;;;8.16;78.78;101219.91;5005639;28;20061;-58
2024/02/13 01:29:47;;;;;;;12.27;4.22;;;;;;;8.06;79.11;101215.28;4995846;28;20054;-58
2024/02/13 01:32:16;;;;;;;12.20;4.35;;;;;;;8.00;79.09;101216.44;5007198;28;20053;-55
2024/02/13 01:34:43;;;;;;;13.75;3.80;;;;;;;7.97;79.42;101228.78;5001576;28;20057;-57
2024/02/13 01:37:11;;;;;;;12.35;3.55;;;;;;;7.89;79.95;101217.59;5006061;28;20053;-60
2024/02/13 01:39:38;;;;;;;9.57;4.00;;;;;;;8.00;79.88;101222.72;4996695;28;20046;-58
2024/02/13 01:42:06;;;;;;;10.77;3.38;;;;;;;8.10;79.55;101213.63;5005077;28;20046;-56
2024/02/13 01:44:33;;;;;;;8.70;3.05;;;;;;;7.88;79.57;101213.22;5005676;28;20058;-55
2024/02/13 01:47:01;;;;;;;10.50;3.67;;;;;;;7.79;80.55;101220.41;4997697;28;20046;-58
2024/02/13 01:49:29;;;;;;;8.85;3.58;;;;;;;7.82;81.00;101228.06;5004651;28;20068;-57
2024/02/13 01:51:59;;;;;;;9.35;3.63;;;;;;;7.81;80.25;101235.47;4987798;28;20053;-58
2024/02/13 01:54:26;;;;;;;8.60;3.10;;;;;;;7.74;80.93;101234.94;5006093;28;20057;-59
2024/02/13 01:56:54;;;;;;;11.30;3.50;;;;;;;7.67;81.20;101230.91;4969948;28;20046;-58
2024/02/13 01:59:22;;;;;;;10.30;3.28;;;;;;;7.88;80.55;101232.41;4989860;28;20631;-58
2024/02/13 02:01:50;;;;;;;8.07;3.58;;;;;;;7.93;80.63;101224.97;4995137;28;20053;-56
2024/02/13 02:04:18;;;;;;;12.25;3.55;;;;;;;7.72;81.12;101223.44;5004137;28;20060;-57
2024/02/13 02:06:49;;;;;;;11.38;3.97;;;;;;;7.85;81.07;101233.81;4994361;28;20072;-59
2024/02/13 02:09:16;;;;;;;11.02;3.92;;;;;;;7.99;80.49;101228.50;4984734;28;20049;-58
2024/02/13 02:11:44;;;;;;;10.27;3.88;;;;;;;7.98;80.56;101221.41;4997608;28;20809;-55
2024/02/13 02:14:11;;;;;;;11.02;4.45;;;;;;;8.09;79.84;101220.22;5004814;28;20060;-57
2024/02/13 02:16:38;;;;;;;12.57;4.45;;;;;;;8.10;79.69;101221.88;5005076;28;20046;-59
2024/02/13 02:19:06;;;;;;;16.58;4.80;;;;;;;8.11;79.83;101228.19;4988405;28;20463;-58
2024/02/13 02:21:34;;;;;;;11.95;4.72;;;;;;;7.95;80.02;101230.16;5004374;28;20046;-58
2024/02/13 02:24:01;;;;;;;11.73;4.57;;;;;;;7.90;80.23;101220.06;5004647;28;20049;-58
2024/02/13 02:26:30;;;;;;;10.27;4.57;;;;;;;7.81;80.67;101229.19;5005101;28;20068;-58
2024/02/13 02:28:57;;;;;;;10.55;4.13;;;;;;;7.76;81.25;101232.75;5005285;28;20050;-56
2024/02/13 02:31:24;;;;;;;13.85;4.90;;;;;;;7.89;81.03;101223.09;5008753;28;20057;-58
2024/02/13 02:33:52;;;;;;;11.90;4.32;;;;;;;7.97;80.63;101217.00;4990023;28;20084;-58
2024/02/13 02:36:19;;;;;;;12.98;5.32;;;;;;;7.94;80.88;101223.06;5004989;28;20736;-59
2024/02/13 02:38:46;;;;;;;10.90;4.97;;;;;;;7.73;81.34;101225.09;5003590;28;20058;-58
2024/02/13 02:41:14;;;;;;;15.65;5.03;;;;;;;7.76;81.35;101229.19;5004627;28;20065;-57
2024/02/13 02:43:42;;;;;;;14.35;5.82;;;;;;;7.79;81.41;101231.38;4999538;28;20089;-58
2024/02/13 02:46:12;;;;;;;14.45;5.45;;;;;;;7.79;81.43;101232.19;5002624;28;20520;-56
2024/02/13 02:48:39;;;;;;;13.30;4.60;;;;;;;7.89;81.01;101231.31;5001618;28;20065;-58
2024/02/13 02:51:07;;;;;;;13.40;5.28;;;;;;;7.85;81.06;101236.56;5005484;28;20053;-56
2024/02/13 02:53:34;;;;;;;11.80;4.78;;;;;;;7.76;81.72;101238.25;5005634;28;20050;-60
2024/02/13 02:56:02;;;;;;;11.60;4.70;;;;;;;7.90;81.63;101232.94;5004425;28;20062;-58
2024/02/13 02:58:29;;;;;;;8.45;4.15;;;;;;;7.79;81.61;101242.34;5003997;28;20065;-59
2024/02/13 03:00:56;;;;;;;11.77;4.45;;;;;;;7.75;82.21;101238.53;4990468;28;20057;-56
2024/02/13 03:03:23;;;;;;;13.00;4.47;;;;;;;7.88;81.85;101237.88;5003655;28;20050;-58
2024/02/13 03:05:51;;;;;;;10.80;4.68;;;;;;;8.03;81.08;101248.78;5002769;28;20795;-57
2024/02/13 03:08:19;;;;;;;15.10;5.20;;;;;;;7.95;81.03;101244.72;5004187;28;20050;-57
2024/02/13 03:10:47;;;;;;;9.85;4.00;;;;;;;7.92;81.50;101244.47;5002108;28;20050;-58
2024/02/13 03:13:15;;;;;;;10.65;4.75;;;;;;;8.14;80.62;101241.31;5001630;28;20062;-56
2024/02/13 03:15:44;;;;;;;10.70;4.28;;;;;;;8.17;80.72;101232.50;4997025;28;20053;-58
2024/02/13 03:18:11;;;;;;;15.53;4.50;;;;;;;8.28;80.44;101226.69;5007801;28;20110;-60
2024/02/13 03:20:39;;;;;;;11.15;4.47;;;;;;;8.23;80.53;101229.44;5002908;28;20638;-59
2024/02/13 03:23:07;;;;;;;7.65;4.10;;;;;;;8.21;80.59;101231.66;5004185;28;20073;-56
2024/02/13 03:25:34;;;;;;;9.05;4.13;;;;;;;7.73;82.37;101227.84;5009799;28;20063;-60
2024/02/13 03:28:05;;;;;;;13.30;5.00;;;;;;;7.80;83.07;101230.28;5004798;28;20072;-59
2024/02/13 03:30:33;;;;;;;8.90;4.70;;;;;;;7.80;82.96;101228.34;5010440;28;20045;-59
2024/02/13 03:33:00;;;;;;;10.77;4.85;;;;;;;7.84;83.03;101234.09;5004781;28;20058;-58
2024/02/13 03:35:30;;;;;;;11.88;4.65;;;;;;;8.06;82.79;101214.47;5001798;28;20050;-58
2024/02/13 03:37:58;;;;;;;8.03;4.37;;;;;;;8.17;82.27;101227.03;5002838;28;20054;-57
2024/02/13 03:40:25;;;;;;;11.00;4.45;;;;;;;8.29;81.39;101219.28;5000543;28;20054;-61
2024/02/13 03:42:52;;;;;;;12.80;4.70;;;;;;;8.16;81.93;101212.47;5000815;28;20507;-58
2024/02/13 03:45:20;;;;;;;9.48;4.32;;;;;;;8.35;81.27;101215.41;5004072;28;20729;-59
2024/02/13 03:47:47;;;;;;;12.57;4.22;;;;;;;8.18;81.32;101212.19;5002118;28;20065;-56
2024/02/13 03:50:16;;;;;;;8.65;3.58;;;;;;;8.31;81.20;101206.94;5003496;28;20058;-58
2024/02/13 03:52:43;;;;;;;11.77;4.43;;;;;;;8.35;81.19;101210.72;5006218;28;20072;-58
2024/02/13 03:55:11;;;;;;;11.52;5.07;;;;;;;8.37;80.71;101203.00;5007842;28;20049;-58
2024/02/13 03:57:38;;;;;;;11.07;4.93;;;;;;;8.35;80.73;101202.47;5011324;28;20057;-57
2024/02/13 04:00:10;;;;;;;11.90;5.50;;;;;;;8.24;81.21;101202.84;5010438;28;20548;-58
2024/02/13 04:02:39;;;;;;;13.73;5.57;;;;;;;8.27;81.09;101203.09;5005624;28;20082;-58
2024/02/13 04:05:07;;;;;;;11.32;5.30;;;;;;;8.09;82.04;101205.69;5013201;28;20054;-55
2024/02/13 04:07:35;;;;;;;9.02;4.97;;;;;;;7.99;82.52;101207.41;5009614;28;20064;-56
2024/02/13 04:10:03;;;;;;;11.77;5.43;;;;;;;8.09;83.12;101205.69;5014323;28;20049;-58
2024/02/13 04:12:30;;;;;;;11.27;5.03;;;;;;;8.13;82.54;101210.31;4996374;28;20734;-59
2024/02/13 04:14:57;;;;;;;13.80;5.68;;;;;;;8.07;82.53;101214.22;5019015;28;20057;-59
2024/02/13 04:17:25;;;;;;;12.15;5.65;;;;;;;8.12;82.76;101211.44;5005079;28;20050;-57
2024/02/13 04:19:53;;;;;;;10.32;5.28;;;;;;;8.26;82.32;101211.63;5012670;28;20617;-57
2024/02/13 04:22:20;;;;;;;17.98;6.18;;;;;;;8.00;82.63;101202.72;5014480;28;20057;-58
2024/02/13 04:24:47;;;;;;;13.98;6.40;;;;;;;8.15;82.23;101205.38;5012989;28;20057;-56
2024/02/13 04:27:14;;;;;;;10.48;5.47;;;;;;;8.06;82.34;101220.78;5006416;28;20073;-58
2024/02/13 04:29:42;;;;;;;14.70;6.20;;;;;;;8.18;82.36;101220.41;5018054;28;20053;-55
2024/02/13 04:32:10;;;;;;;10.50;5.38;;;;;;;8.23;81.81;101221.22;4998503;28;20042;-58
2024/02/13 04:34:37;;;;;;;13.88;6.80;;;;;;;7.87;82.27;101220.63;5012050;28;20061;-59
2024/02/13 04:37:04;;;;;;;13.32;6.53;;;;;;;7.67;83.88;101222.69;5007698;28;20054;-58
2024/02/13 04:39:32;;;;;;;11.77;6.43;;;;;;;7.86;83.76;101229.94;4999958;28;20473;-60
2024/02/13 04:41:59;;;;;;;14.75;6.95;;;;;;;7.63;83.54;101227.06;5008685;28;20049;-59
2024/02/13 04:44:26;;;;;;;14.52;6.60;;;;;;;7.64;84.24;101225.97;5002700;28;20053;-56
2024/02/13 04:46:55;;;;;;;10.85;6.10;;;;;;;7.83;84.22;101235.19;4997502;28;20084;-60
2024/02/13 04:49:24;;;;;;;14.50;6.77;;;;;;;7.89;83.39;101225.84;5007365;28;20784;-59
2024/02/13 04:51:51;;;;;;;15.15;7.00;;;;;;;7.76;83.28;101227.28;5009941;28;20289;-60
2024/02/13 04:54:19;;;;;;;14.27;6.70;;;;;;;7.68;84.04;101240.75;5013437;28;20076;-58
2024/02/13 04:56:47;;;;;;;12.43;6.50;;;;;;;7.97;83.39;101236.19;5005667;28;20050;-58
2024/02/13 04:59:16;;;;;;;14.63;6.63;;;;;;;7.71;83.36;101241.00;5007240;28;20061;-57
2024/02/13 05:01:45;;;;;;;12.47;6.87;;;;;;;7.77;83.75;101239.91;5001302;28;20054;-59
2024/02/13 05:09:28;;;;;;;15.88;7.13;;;;;;;7.98;82.93;101246.09;5004548;28;20636;-57
2024/02/13 05:11:56;;;;;;;12.85;6.60;;;;;;;7.74;83.66;101245.91;5007091;28;20671;-57
2024/02/13 05:14:23;;;;;;;13.25;7.03;;;;;;;7.74;84.21;101245.13;5006022;28;20076;-58
2024/02/13 05:16:50;;;;;;;11.52;6.60;;;;;;;7.74;84.56;101245.91;5008039;28;20116;-56
2024/02/13 05:19:18;;;;;;;14.10;7.05;;;;;;;7.78;84.23;101251.66;5007301;28;20050;-58
2024/02/13 05:21:46;;;;;;;14.88;6.97;;;;;;;7.79;83.96;101245.88;4997338;28;20065;-57
2024/02/13 05:24:13;;;;;;;12.93;6.75;;;;;;;7.87;83.81;101252.72;4998885;28;20329;-57
2024/02/13 05:26:42;;;;;;;14.25;6.43;;;;;;;7.98;83.56;101251.56;5007137;28;20053;-61
2024/02/13 05:29:10;;;;;;;13.63;6.78;;;;;;;7.89;82.78;101253.25;5011138;28;20042;-57
2024/02/13 05:31:37;;;;;;;14.10;7.35;;;;;;;7.91;83.61;101249.13;5004492;28;20061;-57
2024/02/13 05:34:06;;;;;;;14.02;6.63;;;;;;;7.80;84.29;101246.72;5004211;28;20735;-55
2024/02/13 05:36:33;;;;;;;11.75;6.45;;;;;;;7.91;84.13;101246.38;4994744;28;20057;-59
2024/02/13 05:39:02;;;;;;;14.20;7.05;;;;;;;7.98;83.73;101240.59;4988128;28;20053;-59
2024/02/13 05:41:30;;;;;;;12.77;7.20;;;;;;;7.87;83.32;101241.75;4978075;28;20060;-57
2024/02/13 05:43:57;;;;;;;17.70;7.32;;;;;;;7.78;84.26;101243.44;4995038;28;20054;-57
2024/02/13 05:46:24;;;;;;;12.23;6.82;;;;;;;7.77;84.28;101241.81;4988139;28;20046;-60
2024/02/13 05:48:54;;;;;;;11.70;7.20;;;;;;;7.62;85.09;101242.69;4996043;28;20058;-55
2024/02/13 05:51:21;;;;;;;17.65;7.18;;;;;;;7.75;84.63;101244.84;4989412;28;20054;-59
2024/02/13 05:53:49;;;;;;;14.73;7.75;;;;;;;7.53;85.25;101254.53;4979416;28;20049;-58
2024/02/13 05:56:17;;;;;;;14.18;7.70;;;;;;;7.27;87.30;101239.28;4995697;28;20050;-59
2024/02/13 05:58:57;;;;;;;16.98;8.65;;;;;;;7.34;87.06;101246.09;4996937;28;20077;-58
2024/02/13 06:01:32;;;;;;;15.13;8.65;;;;;;;7.34;87.08;101248.03;4984091;28;20054;-59
2024/02/13 06:04:03;;;;;;;16.33;8.10;;;;;;;7.41;87.31;101240.34;4994242;28;20050;-60
2024/02/13 06:06:30;;;;;;;18.65;8.80;;;;;;;7.56;86.51;101241.09;4997181;28;20053;-59
2024/02/13 06:08:58;;;;;;;16.13;8.80;;;;;;;7.56;86.55;101240.25;4980932;28;20084;-56
2024/02/13 06:11:26;;;;;;;18.67;8.77;;;;;;;7.59;86.24;101236.94;4995536;28;20046;-59
2024/02/13 06:13:58;;;;;;;16.25;8.90;;;;;;;7.68;86.47;101238.00;4999028;28;20068;-59
2024/02/13 06:16:25;;;;;;;18.42;8.60;;;;;;;7.74;85.42;101236.91;4990947;28;20445;-58
2024/02/13 06:18:53;;;;;;;15.50;9.05;;;;;;;7.65;85.58;101231.16;4998080;28;20045;-60
2024/02/13 06:21:20;;;;;;;18.60;7.85;;;;;;;7.54;85.82;101236.97;4981599;28;20042;-55
2024/02/13 06:23:52;;;;;;;18.80;8.68;;;;;;;7.80;85.47;101244.81;4972269;28;20046;-58
2024/02/13 06:26:19;;;;;;;17.85;8.38;;;;;;;7.74;84.88;101243.19;4993778;28;20088;-58
2024/02/13 06:28:47;;;;;;;37.20;22.40;;;;;;;7.68;84.96;101241.59;4996787;28;20054;-59
2024/02/13 06:31:14;;;;;;;25.15;13.45;;;;;;;7.70;85.66;101244.03;4992894;28;20046;-58
2024/02/13 06:33:41;;;;;;;14.13;8.20;;;;;;;7.76;85.30;101240.97;4975506;28;20058;-57
2024/02/13 06:36:10;;;;;;;13.48;8.30;;;;;;;7.86;84.89;101251.09;5007675;28;20070;-55
2024/02/13 06:38:37;;;;;;;13.70;7.30;;;;;;;7.80;84.68;101254.94;5009666;28;20054;-60
2024/02/13 06:41:05;;;;;;;13.88;7.75;;;;;;;7.83;84.96;101268.91;5004731;28;20174;-56
2024/02/13 06:43:33;;;;;;;18.55;7.80;;;;;;;7.93;84.58;101259.84;5000736;28;20049;-63
2024/02/13 06:46:01;;;;;;;15.27;7.72;;;;;;;7.72;84.36;101267.31;5001616;28;20065;-63
2024/02/13 06:48:30;;;;;;;17.25;7.38;;;;;;;7.71;85.18;101275.81;5004591;28;20080;-55
2024/02/13 06:50:57;;;;;;;15.88;7.60;;;;;;;7.55;85.59;101277.00;4997857;28;20061;-60
2024/02/13 06:53:25;;;;;;;16.20;8.05;;;;;;;7.26;86.51;101274.06;5004968;28;20053;-56
2024/02/13 06:55:52;;;;;;;23.67;7.82;;;;;;;7.34;86.78;101275.44;4990686;28;20500;-56
2024/02/13 06:58:19;;;;;;;18.35;8.40;;;;;;;7.30;87.53;101280.66;5003276;28;20923;-59
2024/02/13 07:00:47;;;;;;;17.30;8.00;;;;;;;7.37;87.22;101289.41;5004651;28;20049;-58
2024/02/13 07:03:15;;;;;;;19.40;7.93;;;;;;;7.41;87.05;101287.72;5003741;28;20046;-58
2024/02/13 07:05:43;;;;;;;18.83;7.97;;;;;;;7.56;86.61;101292.34;5004214;28;20061;-57
2024/02/13 07:08:11;;;;;;;14.95;8.20;;;;;;;7.61;85.59;101289.59;4997072;28;20128;-56
2024/02/13 07:10:38;;;;;;;15.65;8.60;;;;;;;7.40;86.34;101293.47;5001753;28;20042;-59
2024/02/13 07:13:05;;;;;;;15.52;8.07;;;;;;;7.30;87.39;101291.59;5002679;28;20052;-55
2024/02/13 07:15:35;;;;;;;14.57;8.02;;;;;;;7.16;88.26;101298.75;5003933;28;20045;-59
2024/02/13 07:18:03;;;;;;;13.63;8.52;;;;;;;7.40;87.87;101291.56;5007550;28;20054;-57
2024/02/13 07:20:31;;;;;;;17.45;9.25;;;;;;;7.45;87.34;101296.22;5008546;28;20045;-59
2024/02/13 07:22:58;;;;;;;19.08;9.45;;;;;;;7.44;87.60;101303.63;4987619;28;20050;-60
2024/02/13 07:25:26;;;;;;;24.98;9.82;;;;;;;7.47;87.50;101300.31;4986288;28;20054;-58
2024/02/13 07:27:53;;;;;;;15.68;9.82;;;;;;;7.50;86.73;101307.16;5009979;28;20789;-58
2024/02/13 07:30:21;;;;;;;20.38;9.55;;;;;;;7.46;87.19;101300.59;5003576;28;20053;-64
2024/02/13 07:32:50;;;;;;;20.83;10.25;;;;;;;7.46;86.90;101309.63;5008316;28;20061;-58
2024/02/13 07:35:20;;;;;;;20.10;9.45;;;;;;;7.24;87.65;101311.88;5004365;28;20064;-59
2024/02/13 07:37:47;;;;;;;19.38;10.27;;;;;;;7.30;88.25;101318.19;5004663;28;20065;-58
2024/02/13 07:40:15;;;;;;;21.80;9.77;;;;;;;7.36;88.08;101317.88;5004726;28;20048;-59
2024/02/13 07:42:42;;;;;;;25.90;10.60;;;;;;;7.35;88.27;101318.16;5004267;28;20057;-61
2024/02/13 07:45:10;;;;;;;24.27;10.52;;;;;;;7.30;88.94;101315.44;4995142;28;20045;-62
2024/02/13 07:47:39;;;;;;;18.83;9.68;;;;;;;7.46;88.62;101317.84;5005683;28;20045;-57
2024/02/13 07:50:09;;;;;;;23.27;10.52;;;;;;;7.48;88.50;101325.81;5001883;28;20056;-59
2024/02/13 07:52:37;;;;;;;18.75;9.82;;;;;;;7.61;87.85;101326.06;5010872;28;20580;-58
2024/02/13 07:55:05;;;;;;;22.73;9.88;;;;;;;7.45;88.35;101329.94;5014885;28;20061;-55
2024/02/13 07:57:34;;;;;;;18.15;9.82;;;;;;;7.64;87.76;101336.44;4993380;28;20473;-58
2024/02/13 08:00:03;;;;;;;18.67;9.85;;;;;;;7.78;88.15;101348.47;4997251;28;20052;-58
2024/02/13 08:02:31;;;;;;;28.02;10.13;;;;;;;7.79;87.79;101338.34;4999496;28;20053;-60
2024/02/13 08:04:59;;;;;;;21.20;9.60;;;;;;;7.91;87.36;101353.34;5000843;28;20456;-58
2024/02/13 08:07:27;;;;;;;22.73;10.52;;;;;;;7.85;86.90;101345.41;5004579;28;20064;-61
2024/02/13 08:09:55;;;;;;;20.85;10.18;;;;;;;7.78;87.55;101340.25;4992081;28;20049;-58
2024/02/13 08:12:24;;;;;;;23.63;10.18;;;;;;;8.05;87.63;101339.03;5019232;28;20045;-60
2024/02/13 08:14:51;;;;;;;20.38;9.88;;;;;;;8.07;87.20;101350.56;5010046;28;20056;-60
2024/02/13 08:17:18;;;;;;;20.55;9.88;;;;;;;7.88;86.78;101351.16;5019299;28;20053;-61
2024/02/13 08:19:46;;;;;;;19.58;9.63;;;;;;;7.86;86.88;101349.81;5003879;28;20053;-59
2024/02/13 08:22:15;;;;;;;22.00;10.93;;;;;;;7.88;87.62;101358.56;5020199;28;20046;-62
2024/02/13 08:24:42;;;;;;;19.05;9.95;;;;;;;8.11;86.97;101354.38;4994326;28;20068;-59
2024/02/13 08:27:10;;;;;;;18.80;10.40;;;;;;;7.89;87.16;101354.75;5006895;28;20517;-59
2024/02/13 08:29:37;;;;;;;22.63;10.48;;;;;;;7.95;87.82;101359.09;5019002;28;20760;-57
2024/02/13 08:32:06;;;;;;;20.40;9.45;;;;;;;8.02;87.21;101367.84;5021227;28;20056;-59
2024/02/13 08:34:33;;;;;;;21.65;10.00;;;;;;;8.06;87.38;101368.94;5013921;28;20508;-56
2024/02/13 08:37:04;;;;;;;20.95;10.27;;;;;;;7.96;87.49;101364.31;5011034;28;20046;-59
2024/02/13 08:39:32;;;;;;;24.38;10.10;;;;;;;8.17;87.61;101364.22;5011723;28;20064;-61
2024/02/13 08:42:01;;;;;;;22.00;9.60;;;;;;;8.53;87.51;101373.94;5012216;28;20682;-60
2024/02/13 08:44:30;;;;;;;21.40;9.43;;;;;;;8.67;86.48;101362.03;5020594;28;20061;-61
2024/02/13 08:46:57;;;;;;;18.87;8.57;;;;;;;8.75;86.50;101366.91;5018791;28;20052;-58
2024/02/13 08:49:25;;;;;;;15.40;8.30;;;;;;;8.82;86.26;101361.91;5010841;28;20049;-60
2024/02/13 08:51:53;;;;;;;17.27;7.95;;;;;;;8.83;86.59;101357.25;5019346;28;20045;-61
2024/02/13 08:54:20;;;;;;;17.50;8.45;;;;;;;9.16;84.49;101364.66;5011844;28;20049;-58
2024/02/13 08:56:48;;;;;;;16.17;8.38;;;;;;;9.05;85.10;101366.69;5016660;28;20069;-60
2024/02/13 08:59:16;;;;;;;17.65;8.50;;;;;;;9.17;85.28;101365.50;5013324;28;20145;-62
2024/02/13 09:01:44;;;;;;;13.65;8.60;;;;;;;9.26;84.44;101366.53;5012443;28;20050;-58
2024/02/13 09:04:11;;;;;;;21.52;8.80;;;;;;;9.28;85.12;101356.03;5012359;28;20042;-61
2024/02/13 09:06:39;;;;;;;17.35;8.77;;;;;;;9.26;84.43;101359.06;5015613;28;20058;-58
2024/02/13 09:09:09;;;;;;;22.52;8.73;;;;;;;9.28;84.97;101356.03;5016566;28;20440;-61
2024/02/13 09:11:36;;;;;;;24.88;8.93;;;;;;;9.35;85.44;101351.03;5004004;28;20049;-59
2024/02/13 09:14:03;;;;;;;21.95;8.18;;;;;;;9.05;85.32;101352.94;5008290;28;20053;-63
2024/02/13 09:16:32;;;;;;;20.58;8.15;;;;;;;9.20;85.38;101343.75;5013792;28;20726;-58
2024/02/13 09:18:59;;;;;;;14.65;8.23;;;;;;;9.61;84.48;101349.66;5002786;28;20054;-60
2024/02/13 09:21:28;;;;;;;20.85;8.85;;;;;;;9.31;84.38;101348.03;4988719;28;20050;-60
2024/02/13 09:23:55;;;;;;;22.00;8.30;;;;;;;9.39;84.86;101350.16;5008855;28;20054;-60
2024/02/13 09:26:26;;;;;;;16.60;7.32;;;;;;;9.39;85.24;101349.34;5009421;28;20045;-60
2024/02/13 09:28:54;;;;;;;16.00;7.50;;;;;;;9.46;84.92;101349.81;5006627;28;20075;-60
2024/02/13 09:31:21;;;;;;;13.57;7.15;;;;;;;9.49;84.49;101349.22;5017469;28;20034;-60
2024/02/13 09:33:48;;;;;;;17.90;7.53;;;;;;;9.72;83.57;101345.69;5019701;28;20053;-61
2024/02/13 09:36:20;;;;;;;17.50;6.68;;;;;;;9.66;83.27;101344.91;5016154;28;20058;-59
2024/02/13 09:38:47;;;;;;;16.77;7.22;;;;;;;9.76;82.33;101355.81;4993285;28;20838;-60
2024/02/13 09:41:15;;;;;;;18.08;7.68;;;;;;;9.69;81.74;101347.06;5007037;28;20074;-61
2024/02/13 09:43:42;;;;;;;14.48;6.90;;;;;;;9.93;81.68;101347.09;5009057;28;20052;-61
2024/02/13 09:46:17;;;;;;;17.10;7.82;;;;;;;9.97;81.08;101348.16;5009304;28;20045;-60
2024/02/13 09:48:46;;;;;;;13.80;7.53;;;;;;;9.57;81.61;101343.13;5001294;28;20061;-61
2024/02/13 09:51:18;;;;;;;14.02;8.43;;;;;;;9.68;82.33;101344.63;5001144;28;20058;-57
2024/02/13 09:53:47;;;;;;;19.75;8.43;;;;;;;9.55;82.22;101348.09;5008599;28;20619;-58
2024/02/13 09:56:15;;;;;;;17.65;8.18;;;;;;;9.49;82.09;101339.06;4999289;28;20060;-58
2024/02/13 09:58:46;;;;;;;14.88;8.38;;;;;;;9.57;82.22;101340.38;5003909;28;20053;-61
2024/02/13 10:01:14;;;;;;;18.10;11.05;;;;;;;9.70;81.49;101350.66;5011365;28;20053;-56
2024/02/13 10:03:41;;;;;;;15.07;9.23;;;;;;;9.72;80.82;101346.50;5005595;28;20046;-57
2024/02/13 10:06:12;;;;;;;14.65;8.18;;;;;;;9.79;79.92;101346.16;4986744;28;20057;-58
2024/02/13 10:08:40;;;;;;;11.27;7.82;;;;;;;9.50;80.58;101343.44;4998684;28;20564;-59
2024/02/13 10:11:11;;;;;;;16.80;7.40;;;;;;;9.81;80.39;101360.44;5001565;28;20666;-55
2024/02/13 10:13:39;;;;;;;20.40;8.23;;;;;;;9.78;79.69;101355.53;5002199;28;20060;-56
2024/02/13 10:16:18;;;;;;;12.60;7.97;;;;;;;9.89;78.81;101357.88;5012962;28;20053;-60
2024/02/13 10:18:57;;;;;;;14.10;8.48;;;;;;;10.02;78.31;101354.38;5013282;28;20053;-59
2024/02/13 10:21:25;;;;;;;16.75;8.23;;;;;;;10.05;78.19;101351.06;4984165;28;20073;-58
2024/02/13 10:24:12;;;;;;;16.42;8.90;;;;;;;9.78;79.16;101358.28;5005846;28;20072;-57
2024/02/13 10:26:43;;;;;;;17.60;8.95;;;;;;;10.16;78.77;101355.34;5013112;28;20045;-59
2024/02/13 10:29:12;;;;;;;14.48;9.07;;;;;;;10.07;78.17;101354.34;5015306;28;20430;-60
2024/02/13 10:31:40;;;;;;;15.32;8.38;;;;;;;10.19;77.54;101348.44;5005278;28;20057;-57
2024/02/13 10:34:11;;;;;;;19.02;8.40;;;;;;;10.35;76.66;101347.13;5004944;28;20055;-60
2024/02/13 10:36:43;;;;;;;11.38;7.60;;;;;;;10.34;76.96;101350.97;5004414;28;20073;-60
2024/02/13 10:39:12;;;;;;;14.77;8.18;;;;;;;10.31;76.35;101348.81;5011624;28;20045;-58
2024/02/13 10:41:44;;;;;;;13.67;8.37;;;;;;;10.44;76.06;101359.13;5012182;28;20041;-58
2024/02/13 10:44:20;;;;;;;19.55;8.35;;;;;;;10.45;76.55;101348.91;4999304;28;20317;-59
2024/02/13 10:46:49;;;;;;;14.73;8.40;;;;;;;10.53;75.57;101351.00;5013962;28;20614;-57
2024/02/13 10:49:35;;;;;;;13.77;8.05;;;;;;;10.48;74.23;101351.88;5006916;28;20053;-58
2024/02/13 10:52:05;;;;;;;15.20;7.47;;;;;;;10.40;74.14;101346.22;5000630;28;20061;-60
2024/02/13 10:54:37;;;;;;;16.42;7.85;;;;;;;10.56;74.06;101345.72;5005697;28;20049;-57
2024/02/13 10:57:06;;;;;;;16.50;7.13;;;;;;;10.83;73.05;101336.75;5001299;28;20413;-57
2024/02/13 10:59:35;;;;;;;11.43;5.68;;;;;;;10.82;71.09;101338.69;5004355;28;20054;-59
2024/02/13 11:02:04;;;;;;;9.50;4.85;;;;;;;10.97;71.13;101343.97;5004102;28;20686;-61
2024/02/13 11:04:32;;;;;;;8.75;4.15;;;;;;;11.01;71.57;101336.72;5006148;28;20505;-59
2024/02/13 11:07:01;;;;;;;10.20;3.92;;;;;;;11.17;69.72;101335.34;4998471;28;20041;-58
2024/02/13 11:09:29;;;;;;;10.40;3.85;;;;;;;10.99;69.28;101336.22;4984807;28;20153;-55
2024/02/13 11:11:58;;;;;;;9.15;3.67;;;;;;;11.09;69.91;101338.78;5016897;28;20057;-58
2024/02/13 11:14:26;;;;;;;12.18;4.72;;;;;;;11.38;69.59;101336.59;5003651;28;20057;-59
2024/02/13 11:16:57;;;;;;;11.40;4.47;;;;;;;11.35;69.45;101333.63;5010734;28;20050;-59
2024/02/13 11:19:36;;;;;;;11.32;4.10;;;;;;;11.27;70.07;101339.88;4991376;28;20547;-59
2024/02/13 11:22:08;;;;;;;8.32;4.00;;;;;;;11.31;70.04;101330.66;4988685;28;20473;-61
2024/02/13 11:24:48;;;;;;;9.13;3.58;;;;;;;11.22;70.58;101337.19;5007343;28;20050;-60
2024/02/13 11:27:17;;;;;;;11.82;5.32;;;;;;;11.08;72.23;101342.69;5003187;28;20148;-59
2024/02/13 11:30:06;;;;;;;21.10;9.80;;;;;;;11.52;71.58;101330.31;4999465;28;20049;-58
2024/02/13 11:32:37;;;;;;;18.13;8.65;;;;;;;11.61;70.51;101325.72;5003416;28;20681;-58
2024/02/13 11:35:10;;;;;;;22.90;11.95;;;;;;;11.57;70.74;101325.53;5014381;28;20080;-56